Time;durP1;ratioP1;P1;durP2;ratioP2;P2;SDS_P1;SDS_P2;PMS_P1;PMS_P2;Temp;Humidity;BMP_temperature;BMP_pressure;BME280_temperature;BME280_humidity;BME280_pressure;Samples;Min_cycle;Max_cycle;Signal;HPM_P1;HPM_P2
2021/03/15 00:00:49;;;;;;;1.58;1.10;;;4.70;99.90;;;;;;5087592;28;20056;-70
2021/03/15 00:03:16;;;;;;;1.48;0.90;;;4.70;99.90;;;;;;5092023;28;20044;-70
2021/03/15 00:05:42;;;;;;;1.35;0.80;;;4.70;99.90;;;;;;5105478;28;20055;-70
2021/03/15 00:08:09;;;;;;;2.10;0.90;;;4.70;99.90;;;;;;5105258;28;20048;-70
2021/03/15 00:10:36;;;;;;;1.95;0.80;;;4.60;99.90;;;;;;5105937;28;20040;-70
2021/03/15 00:13:02;;;;;;;2.78;0.85;;;4.60;99.90;;;;;;5105895;28;20059;-70
2021/03/15 00:15:28;;;;;;;3.28;1.02;;;4.60;99.90;;;;;;5105308;28;20043;-70
2021/03/15 00:17:54;;;;;;;3.13;1.33;;;4.60;99.90;;;;;;5104909;28;20100;-70
2021/03/15 00:20:21;;;;;;;2.13;0.98;;;4.60;99.90;;;;;;5104970;28;20056;-70
2021/03/15 00:22:48;;;;;;;2.25;1.00;;;4.60;99.90;;;;;;5105174;28;20070;-70
2021/03/15 00:25:16;;;;;;;2.38;1.10;;;4.60;99.90;;;;;;5105115;28;20044;-70
2021/03/15 00:27:42;;;;;;;3.08;1.02;;;4.70;99.90;;;;;;5105575;28;20048;-70
2021/03/15 00:30:11;;;;;;;3.47;1.20;;;4.60;99.90;;;;;;5105669;28;20044;-70
2021/03/15 00:32:37;;;;;;;2.00;1.00;;;4.60;99.90;;;;;;5087254;28;20720;-70
2021/03/15 00:35:08;;;;;;;1.05;0.90;;;4.60;99.90;;;;;;5105820;28;20063;-70
2021/03/15 00:37:34;;;;;;;1.23;0.90;;;4.60;99.90;;;;;;5105568;28;20044;-70
2021/03/15 00:40:00;;;;;;;2.47;0.95;;;4.60;99.90;;;;;;5105238;28;20044;-70
2021/03/15 00:42:26;;;;;;;1.23;1.10;;;4.60;99.90;;;;;;5105480;28;20040;-70
2021/03/15 00:44:52;;;;;;;1.27;1.00;;;4.60;99.90;;;;;;5104914;28;20063;-70
2021/03/15 00:47:18;;;;;;;2.75;1.30;;;4.60;99.90;;;;;;5104910;28;20040;-70
2021/03/15 00:49:44;;;;;;;3.80;1.23;;;4.60;99.90;;;;;;5105162;28;20050;-70
2021/03/15 00:52:10;;;;;;;3.38;1.33;;;4.60;99.90;;;;;;5086725;28;20067;-70
2021/03/15 00:54:36;;;;;;;3.38;1.30;;;4.60;99.90;;;;;;5105083;28;20077;-70
2021/03/15 00:57:02;;;;;;;3.40;1.50;;;4.60;99.90;;;;;;5107358;28;20171;-70
2021/03/15 00:59:28;;;;;;;4.88;1.52;;;4.60;99.90;;;;;;5108298;28;20044;-70
2021/03/15 01:01:54;;;;;;;3.63;1.45;;;4.60;99.90;;;;;;5108797;28;20410;-70
2021/03/15 01:04:20;;;;;;;3.55;1.50;;;4.60;99.90;;;;;;5109020;28;20104;-70
2021/03/15 01:06:46;;;;;;;3.63;1.63;;;4.60;99.90;;;;;;5107959;28;20044;-70
2021/03/15 01:09:12;;;;;;;2.65;1.42;;;4.60;99.90;;;;;;5108349;28;20119;-70
2021/03/15 01:11:39;;;;;;;1.92;1.20;;;4.60;99.90;;;;;;5108476;28;20052;-70
2021/03/15 01:14:05;;;;;;;3.35;1.45;;;4.60;99.90;;;;;;5108786;28;20044;-70
2021/03/15 01:16:31;;;;;;;1.73;1.10;;;4.60;99.90;;;;;;5108760;28;20048;-70
2021/03/15 01:18:57;;;;;;;2.45;1.17;;;4.60;99.90;;;;;;5107939;28;20044;-70
2021/03/15 01:21:24;;;;;;;2.45;1.45;;;4.70;99.90;;;;;;5108146;28;20063;-70
2021/03/15 01:23:50;;;;;;;2.35;1.20;;;4.70;99.90;;;;;;5108175;28;20046;-70
2021/03/15 01:26:15;;;;;;;1.85;1.17;;;4.60;99.90;;;;;;5108310;28;20050;-70
2021/03/15 01:28:41;;;;;;;2.42;1.17;;;4.50;99.90;;;;;;5108536;28;20035;-70
2021/03/15 01:31:07;;;;;;;2.13;1.10;;;4.50;99.90;;;;;;5108237;28;20060;-70
2021/03/15 01:33:33;;;;;;;2.28;1.20;;;4.50;99.90;;;;;;5108147;28;20056;-70
2021/03/15 01:35:59;;;;;;;1.55;1.23;;;4.40;99.90;;;;;;5107996;28;20052;-71
2021/03/15 01:38:25;;;;;;;1.25;0.88;;;4.40;99.90;;;;;;5107552;28;20047;-69
2021/03/15 01:40:51;;;;;;;3.45;1.00;;;4.40;99.90;;;;;;5107924;28;20047;-70
2021/03/15 01:43:17;;;;;;;1.55;1.10;;;4.30;99.90;;;;;;5107887;28;20112;-69
2021/03/15 01:45:42;;;;;;;2.53;1.20;;;4.30;99.90;;;;;;5094410;28;20052;-70
2021/03/15 01:48:13;;;;;;;2.65;1.27;;;4.30;99.90;;;;;;5107472;28;20488;-70
2021/03/15 01:50:45;;;;;;;3.15;1.20;;;4.20;99.90;;;;;;5107850;28;20122;-70
2021/03/15 01:53:12;;;;;;;2.08;1.17;;;4.10;99.90;;;;;;5107555;28;20048;-70
2021/03/15 01:55:38;;;;;;;3.40;1.27;;;4.10;99.90;;;;;;5108076;28;20055;-70
2021/03/15 01:58:05;;;;;;;2.22;1.10;;;4.00;99.90;;;;;;5107848;28;20044;-70
2021/03/15 02:00:31;;;;;;;2.38;1.05;;;3.90;99.90;;;;;;5107768;28;20048;-70
2021/03/15 02:03:03;;;;;;;2.65;1.30;;;3.90;99.90;;;;;;5107568;28;20145;-70
2021/03/15 02:05:30;;;;;;;2.58;1.20;;;3.90;99.90;;;;;;5107194;28;20526;-70
2021/03/15 02:07:56;;;;;;;1.35;1.10;;;3.80;99.90;;;;;;5107309;28;20048;-70
2021/03/15 02:10:22;;;;;;;1.92;1.40;;;3.80;99.90;;;;;;5106923;28;20055;-70
2021/03/15 02:13:00;;;;;;;2.88;1.45;;;3.80;99.90;;;;;;5107286;28;20040;-69
2021/03/15 02:15:29;;;;;;;2.95;1.42;;;3.80;99.90;;;;;;5107461;28;20044;-70
2021/03/15 02:18:16;;;;;;;2.40;1.50;;;3.90;99.90;;;;;;5089723;28;20043;-70
2021/03/15 02:21:00;;;;;;;3.03;1.48;;;3.90;99.90;;;;;;5106984;28;20044;-70
2021/03/15 02:23:55;;;;;;;3.30;1.58;;;3.90;99.90;;;;;;5107646;28;20048;-70
2021/03/15 02:26:49;;;;;;;3.22;1.63;;;3.80;99.90;;;;;;5106934;28;20063;-70
2021/03/15 02:29:53;;;;;;;1.55;1.42;;;3.90;99.90;;;;;;5106795;28;20044;-70
2021/03/15 02:32:41;;;;;;;3.72;1.58;;;3.90;99.90;;;;;;5106983;28;20051;-70
2021/03/15 02:35:09;;;;;;;3.25;1.33;;;3.80;99.90;;;;;;5106787;28;20069;-70
2021/03/15 02:37:40;;;;;;;6.53;1.60;;;3.80;99.90;;;;;;5107046;28;20032;-70
2021/03/15 02:40:10;;;;;;;2.08;1.30;;;3.80;99.90;;;;;;5106396;28;20044;-70
2021/03/15 02:42:38;;;;;;;1.98;1.38;;;3.80;99.90;;;;;;5106766;28;20044;-69
2021/03/15 02:45:06;;;;;;;3.53;1.60;;;3.80;99.90;;;;;;5106777;28;20072;-70
2021/03/15 02:47:37;;;;;;;2.88;1.83;;;3.80;99.90;;;;;;5106732;28;20044;-70
2021/03/15 02:50:06;;;;;;;4.10;1.35;;;3.80;99.90;;;;;;5106426;28;20040;-70
2021/03/15 02:52:36;;;;;;;1.85;1.40;;;3.70;99.90;;;;;;5106594;28;20047;-70
2021/03/15 02:55:03;;;;;;;3.27;1.60;;;3.70;99.90;;;;;;5106652;28;20040;-70
2021/03/15 02:57:32;;;;;;;2.63;1.42;;;3.60;99.90;;;;;;5106534;28;20064;-70
2021/03/15 02:59:58;;;;;;;2.17;1.33;;;3.60;99.90;;;;;;5105981;28;20048;-70
2021/03/15 03:02:25;;;;;;;1.92;1.50;;;3.50;99.90;;;;;;5106191;28;20048;-70
2021/03/15 03:04:52;;;;;;;2.60;1.60;;;3.40;99.90;;;;;;5106401;28;20056;-70
2021/03/15 03:07:20;;;;;;;2.90;1.58;;;3.40;99.90;;;;;;5106181;28;20070;-70
2021/03/15 03:09:47;;;;;;;4.07;1.90;;;3.30;99.90;;;;;;5106557;28;20055;-71
2021/03/15 03:12:14;;;;;;;4.60;1.80;;;3.30;99.90;;;;;;5088372;28;20524;-70
2021/03/15 03:14:41;;;;;;;4.00;1.80;;;3.30;99.90;;;;;;5105920;28;20142;-70
2021/03/15 03:17:09;;;;;;;4.88;1.80;;;3.30;99.90;;;;;;5106079;28;20054;-70
2021/03/15 03:19:36;;;;;;;4.25;2.10;;;3.30;99.90;;;;;;5105209;28;20036;-70
2021/03/15 03:22:03;;;;;;;4.15;1.92;;;3.30;99.90;;;;;;5106170;28;20113;-70
2021/03/15 03:24:31;;;;;;;4.78;1.90;;;3.20;99.90;;;;;;5106369;28;20055;-70
2021/03/15 03:26:57;;;;;;;6.85;2.42;;;3.20;99.90;;;;;;5106481;28;20044;-70
2021/03/15 03:29:25;;;;;;;4.43;2.20;;;3.20;99.90;;;;;;5105942;28;20044;-70
2021/03/15 03:31:52;;;;;;;5.72;2.30;;;3.20;99.90;;;;;;5105887;28;20127;-70
2021/03/15 03:34:19;;;;;;;3.45;2.20;;;3.10;99.90;;;;;;5105831;28;20104;-70
2021/03/15 03:36:45;;;;;;;6.05;2.45;;;3.10;99.90;;;;;;5105592;28;20040;-70
2021/03/15 03:39:12;;;;;;;7.07;2.55;;;3.10;99.90;;;;;;5105252;28;20040;-70
2021/03/15 03:41:39;;;;;;;7.30;2.60;;;3.10;99.90;;;;;;5105568;28;20043;-70
2021/03/15 03:44:07;;;;;;;5.20;2.35;;;3.10;99.90;;;;;;5105972;28;20070;-69
2021/03/15 03:46:33;;;;;;;4.55;2.22;;;3.10;99.90;;;;;;5105354;28;20074;-69
2021/03/15 03:48:59;;;;;;;6.97;2.60;;;3.10;99.90;;;;;;5105787;28;20115;-69
2021/03/15 03:51:31;;;;;;;4.60;2.67;;;3.00;99.90;;;;;;5105395;28;20043;-70
2021/03/15 03:54:16;;;;;;;9.43;2.60;;;3.00;99.90;;;;;;5105746;28;20044;-70
2021/03/15 03:56:50;;;;;;;5.07;2.40;;;3.10;99.90;;;;;;5106213;28;20048;-70
2021/03/15 03:59:20;;;;;;;7.95;2.85;;;3.10;99.90;;;;;;5105815;28;20047;-69
2021/03/15 04:01:49;;;;;;;9.52;3.65;;;3.20;99.90;;;;;;5105413;28;20066;-70
2021/03/15 04:04:22;;;;;;;8.90;3.30;;;3.30;99.90;;;;;;5105653;28;20044;-70
2021/03/15 04:06:51;;;;;;;6.75;3.00;;;3.30;99.90;;;;;;5105751;28;20058;-70
2021/03/15 04:09:29;;;;;;;7.50;3.25;;;3.40;99.90;;;;;;5105345;28;20465;-70
2021/03/15 04:12:00;;;;;;;9.70;3.08;;;3.40;99.90;;;;;;5105042;28;20062;-70
2021/03/15 04:14:30;;;;;;;9.38;3.95;;;3.40;99.90;;;;;;5105156;28;20048;-69
2021/03/15 04:16:59;;;;;;;9.32;3.28;;;3.50;99.90;;;;;;5105061;28;20044;-69
2021/03/15 04:19:30;;;;;;;8.80;3.03;;;3.40;99.90;;;;;;5105774;28;20440;-70
2021/03/15 04:22:03;;;;;;;11.98;3.30;;;3.40;99.90;;;;;;5105211;28;20056;-70
2021/03/15 04:24:29;;;;;;;10.18;3.42;;;3.40;99.90;;;;;;5105255;28;20052;-70
2021/03/15 04:26:57;;;;;;;11.35;3.67;;;3.40;99.90;;;;;;5105015;28;20044;-70
2021/03/15 04:29:26;;;;;;;9.18;3.80;;;3.50;99.90;;;;;;5106403;28;20051;-70
2021/03/15 04:31:53;;;;;;;9.80;3.33;;;3.50;99.90;;;;;;5108767;28;20044;-69
2021/03/15 04:34:20;;;;;;;12.20;3.60;;;3.40;99.90;;;;;;5109095;28;20051;-70
2021/03/15 04:36:47;;;;;;;9.50;3.28;;;3.40;99.90;;;;;;5109111;28;20048;-70
2021/03/15 04:39:14;;;;;;;12.60;3.50;;;3.40;99.90;;;;;;5108988;28;20036;-70
2021/03/15 04:41:42;;;;;;;14.52;3.63;;;3.30;99.90;;;;;;5108899;28;20051;-70
2021/03/15 04:44:09;;;;;;;11.15;4.00;;;3.30;99.90;;;;;;5109500;28;20126;-70
2021/03/15 04:46:36;;;;;;;13.25;4.68;;;3.30;99.90;;;;;;5109429;28;20055;-70
2021/03/15 04:49:07;;;;;;;8.73;3.78;;;3.30;99.90;;;;;;5109744;28;20044;-70
2021/03/15 04:51:33;;;;;;;;;;;3.30;99.90;;;;;;5109514;28;20044;-70
2021/03/15 04:54:01;;;;;;;16.58;6.15;;;3.30;99.90;;;;;;5109306;28;19966;-70
2021/03/15 04:56:28;;;;;;;14.18;5.18;;;3.20;99.90;;;;;;5108904;28;20055;-70
2021/03/15 04:58:57;;;;;;;15.32;5.68;;;3.30;99.90;;;;;;5108657;28;20044;-69
2021/03/15 05:01:28;;;;;;;16.88;5.68;;;3.30;99.90;;;;;;5090882;28;20044;-69
2021/03/15 05:03:56;;;;;;;22.08;6.53;;;3.30;99.90;;;;;;5108522;28;20044;-70
2021/03/15 05:06:25;;;;;;;23.90;5.80;;;3.30;99.90;;;;;;5108677;28;20058;-70
2021/03/15 05:08:54;;;;;;;21.27;6.65;;;3.30;99.90;;;;;;5108888;28;20040;-70
2021/03/15 05:11:25;;;;;;;27.55;6.60;;;3.40;99.90;;;;;;5108547;28;20048;-70
2021/03/15 05:13:50;;;;;;;;;;;3.40;99.90;;;;;;5109361;28;20040;-70
2021/03/15 05:16:16;;;;;;;19.23;6.13;;;3.50;99.90;;;;;;5108423;28;19977;-70
2021/03/15 05:18:43;;;;;;;22.17;6.60;;;3.50;99.90;;;;;;5108139;28;20048;-70
2021/03/15 05:21:09;;;;;;;17.48;6.75;;;3.50;99.90;;;;;;5107898;28;20041;-70
2021/03/15 05:23:37;;;;;;;18.63;5.95;;;3.50;99.90;;;;;;5108570;28;20040;-70
2021/03/15 05:26:04;;;;;;;21.45;5.88;;;3.50;99.90;;;;;;5108214;28;20040;-70
2021/03/15 05:28:31;;;;;;;19.00;5.60;;;3.60;99.90;;;;;;5108330;28;20055;-70
2021/03/15 05:31:02;;;;;;;18.67;5.57;;;3.50;99.90;;;;;;5108175;28;20051;-70
2021/03/15 05:33:31;;;;;;;22.98;6.28;;;3.50;99.90;;;;;;5090401;28;20148;-70
2021/03/15 05:35:59;;;;;;;23.98;5.82;;;3.60;99.90;;;;;;5083856;28;20146;-70
2021/03/15 05:38:25;;;;;;;20.85;5.70;;;3.60;99.90;;;;;;5107825;28;20059;-70
2021/03/15 05:40:53;;;;;;;22.65;6.30;;;3.60;99.90;;;;;;5107183;28;20040;-70
2021/03/15 05:43:26;;;;;;;19.65;5.70;;;3.60;99.90;;;;;;5108224;28;20128;-70
2021/03/15 05:46:07;;;;;;;27.10;6.25;;;3.80;99.90;;;;;;5105065;28;20044;-70
2021/03/15 05:48:50;;;;;;;18.20;5.85;;;3.90;99.90;;;;;;5106459;28;20125;-70
2021/03/15 05:51:54;;;;;;;25.75;5.60;;;4.00;99.90;;;;;;5105593;28;20044;-71
2021/03/15 05:54:58;;;;;;;19.60;5.60;;;4.10;99.90;;;;;;5104910;28;20082;-72
2021/03/15 05:57:46;;;;;;;23.50;5.47;;;4.10;99.90;;;;;;5089999;28;20044;-71
2021/03/15 06:00:34;;;;;;;22.10;5.60;;;4.20;99.90;;;;;;5105311;28;20551;-71
2021/03/15 06:03:29;;;;;;;24.92;5.32;;;4.20;99.90;;;;;;5104878;28;20040;-71
2021/03/15 06:05:59;;;;;;;21.92;4.88;;;4.20;99.90;;;;;;5101001;28;20075;-76
2021/03/15 06:08:28;;;;;;;;;;;4.20;99.90;;;;;;5106031;28;20112;-77
2021/03/15 06:11:04;;;;;;;22.63;4.75;;;4.20;99.90;;;;;;5105684;28;19920;-75
2021/03/15 06:13:34;;;;;;;26.08;4.80;;;4.20;99.90;;;;;;5105215;28;20047;-76
2021/03/15 06:16:01;;;;;;;;;;;4.20;99.90;;;;;;5103641;28;20077;-76
2021/03/15 06:18:28;;;;;;;20.02;4.72;;;4.20;99.90;;;;;;5104996;28;19927;-74
2021/03/15 06:20:55;;;;;;;26.23;4.60;;;4.20;99.90;;;;;;5105232;28;20066;-73
2021/03/15 06:23:21;;;;;;;28.38;4.93;;;4.20;99.90;;;;;;5102829;28;20048;-74
2021/03/15 06:25:48;;;;;;;28.48;5.25;;;4.20;99.90;;;;;;5103386;28;20064;-72
2021/03/15 06:28:16;;;;;;;18.75;4.43;;;4.20;99.90;;;;;;5107334;28;20036;-72
2021/03/15 06:30:44;;;;;;;27.38;5.60;;;4.20;99.90;;;;;;5104661;28;20048;-71
2021/03/15 06:33:12;;;;;;;16.38;3.88;;;4.30;99.90;;;;;;5109073;28;20048;-72
2021/03/15 06:35:43;;;;;;;22.33;4.50;;;4.30;99.90;;;;;;5105001;28;20060;-72
2021/03/15 06:38:09;;;;;;;17.90;4.22;;;4.30;99.90;;;;;;5099483;28;20119;-71
2021/03/15 06:40:40;;;;;;;22.65;4.45;;;4.30;99.90;;;;;;5104991;28;20107;-72
2021/03/15 06:43:11;;;;;;;30.10;4.30;;;4.30;99.90;;;;;;5075543;28;20094;-71
2021/03/15 06:45:37;;;;;;;19.30;3.70;;;4.40;99.90;;;;;;5082962;28;20048;-72
2021/03/15 06:48:03;;;;;;;23.40;3.92;;;4.40;99.90;;;;;;5078470;28;20105;-72
2021/03/15 06:50:29;;;;;;;19.52;4.07;;;4.40;99.90;;;;;;5075801;28;20051;-71
2021/03/15 06:52:57;;;;;;;22.00;3.67;;;4.40;99.90;;;;;;5098496;28;20040;-72
2021/03/15 06:55:43;;;;;;;20.70;3.90;;;4.50;99.90;;;;;;5087084;28;20078;-71
2021/03/15 06:58:23;;;;;;;16.95;3.03;;;4.50;99.90;;;;;;5095749;28;20058;-72
2021/03/15 07:01:08;;;;;;;20.70;3.40;;;4.50;99.90;;;;;;5087040;28;20051;-72
2021/03/15 07:03:35;;;;;;;18.90;2.78;;;4.50;99.90;;;;;;5091138;28;20051;-72
2021/03/15 07:06:01;;;;;;;23.05;3.20;;;4.60;99.90;;;;;;5093063;28;20039;-72
2021/03/15 07:08:28;;;;;;;29.35;4.20;;;4.60;99.90;;;;;;5100561;28;20032;-71
2021/03/15 07:10:57;;;;;;;27.10;3.58;;;4.80;99.90;;;;;;5088448;28;20059;-72
2021/03/15 07:13:25;;;;;;;29.05;3.63;;;4.80;99.90;;;;;;5097923;28;20118;-73
2021/03/15 07:15:54;;;;;;;24.48;3.58;;;4.90;99.90;;;;;;5088296;28;20052;-72
2021/03/15 07:18:24;;;;;;;19.65;3.55;;;5.00;99.90;;;;;;5098588;28;20137;-71
2021/03/15 07:20:53;;;;;;;20.05;3.97;;;5.00;99.90;;;;;;5086539;28;20489;-72
2021/03/15 07:23:37;;;;;;;22.80;3.72;;;5.10;99.90;;;;;;5095404;28;20052;-71
2021/03/15 07:26:21;;;;;;;18.02;3.60;;;5.10;99.90;;;;;;5083490;28;20158;-72
2021/03/15 07:28:48;;;;;;;21.98;4.18;;;5.10;99.90;;;;;;5096122;28;20089;-72
2021/03/15 07:31:20;;;;;;;16.33;2.92;;;5.20;99.90;;;;;;5068813;28;20078;-72
2021/03/15 07:33:49;;;;;;;24.80;4.07;;;5.20;99.90;;;;;;5095842;28;20044;-72
2021/03/15 07:36:16;;;;;;;20.25;3.80;;;5.30;99.90;;;;;;5086289;28;20064;-71
2021/03/15 07:38:42;;;;;;;22.15;3.53;;;5.30;99.90;;;;;;5097303;28;20074;-72
2021/03/15 07:41:15;;;;;;;24.98;3.47;;;5.40;99.90;;;;;;5086484;28;20096;-73
2021/03/15 07:43:41;;;;;;;18.40;3.25;;;5.40;99.90;;;;;;5097139;28;20499;-74
2021/03/15 07:46:27;;;;;;;21.85;3.50;;;5.40;99.90;;;;;;5086306;28;20044;-75
2021/03/15 07:48:59;;;;;;;23.95;3.42;;;5.40;99.90;;;;;;5094606;28;20028;-74
2021/03/15 07:51:35;;;;;;;28.90;4.15;;;5.50;99.90;;;;;;5086044;28;20052;-76
2021/03/15 07:54:06;;;;;;;21.67;3.53;;;5.50;99.90;;;;;;5095461;28;20062;-76
2021/03/15 07:56:32;;;;;;;21.45;3.67;;;5.60;99.90;;;;;;5087925;28;20063;-75
2021/03/15 07:58:58;;;;;;;21.15;4.38;;;5.60;99.90;;;;;;5095743;28;20052;-77
2021/03/15 08:01:25;;;;;;;30.08;4.35;;;5.50;99.90;;;;;;5086871;28;20159;-75
2021/03/15 08:03:52;;;;;;;22.77;3.78;;;5.60;99.90;;;;;;5094830;28;20116;-75
2021/03/15 08:06:21;;;;;;;24.23;3.80;;;5.60;99.90;;;;;;5085959;28;20359;-75
2021/03/15 08:08:47;;;;;;;21.70;5.00;;;5.50;99.90;;;;;;5095770;28;20044;-75
2021/03/15 08:11:17;;;;;;;27.63;4.28;;;5.50;99.90;;;;;;5085829;28;20044;-75
2021/03/15 08:13:44;;;;;;;;;;;5.50;99.90;;;;;;5095168;28;20036;-74
2021/03/15 08:16:13;;;;;;;17.17;3.47;;;5.40;99.90;;;;;;5088902;28;20003;-77
2021/03/15 08:18:44;;;;;;;23.35;3.95;;;5.50;99.90;;;;;;5100405;28;20104;-76
2021/03/15 08:21:12;;;;;;;23.10;3.55;;;5.50;99.90;;;;;;5086576;28;20044;-76
2021/03/15 08:23:44;;;;;;;23.55;4.45;;;5.50;99.90;;;;;;5093405;28;20147;-74
2021/03/15 08:26:12;;;;;;;17.60;3.40;;;5.60;99.90;;;;;;5086616;28;20123;-76
2021/03/15 08:28:40;;;;;;;23.63;4.00;;;5.70;99.90;;;;;;5079482;28;20052;-76
2021/03/15 08:31:29;;;;;;;21.20;3.08;;;5.70;99.90;;;;;;5087531;28;20055;-74
2021/03/15 08:33:55;;;;;;;23.50;3.92;;;5.90;99.90;;;;;;5095917;28;20493;-76
2021/03/15 08:36:22;;;;;;;19.67;3.83;;;5.90;99.90;;;;;;5088276;28;20051;-75
2021/03/15 08:38:48;;;;;;;21.23;3.53;;;6.10;99.90;;;;;;5100987;28;20493;-75
2021/03/15 08:41:27;;;;;;;22.30;4.65;;;6.00;99.90;;;;;;5088324;28;20148;-76
2021/03/15 08:43:54;;;;;;;21.73;4.90;;;6.10;99.90;;;;;;5097163;28;20040;-77
2021/03/15 08:46:22;;;;;;;15.75;3.67;;;6.10;99.90;;;;;;5085794;28;20156;-76
2021/03/15 08:48:53;;;;;;;16.92;4.30;;;6.10;99.90;;;;;;5095184;28;20043;-75
2021/03/15 08:51:34;;;;;;;18.85;3.42;;;6.10;99.90;;;;;;5084031;28;20439;-75
2021/03/15 08:54:08;;;;;;;17.92;3.45;;;6.10;99.90;;;;;;5095244;28;20040;-73
2021/03/15 08:56:47;;;;;;;13.63;3.28;;;6.20;99.90;;;;;;5082408;28;20040;-74
2021/03/15 08:59:13;;;;;;;17.85;3.30;;;6.30;99.90;;;;;;5095041;28;20048;-74
2021/03/15 09:02:01;;;;;;;22.27;3.50;;;6.40;99.90;;;;;;5085510;28;20473;-75
2021/03/15 09:04:41;;;;;;;15.82;3.42;;;6.40;99.90;;;;;;5095439;28;20032;-75
2021/03/15 09:07:25;;;;;;;;;;;6.50;99.90;;;;;;5070198;28;20703;-73
2021/03/15 09:09:51;;;;;;;11.82;2.55;;;6.40;99.90;;;;;;5098235;28;19920;-76
2021/03/15 09:12:17;;;;;;;15.20;2.45;;;6.60;99.90;;;;;;5085860;28;20061;-74
2021/03/15 09:14:53;;;;;;;12.88;2.13;;;6.60;99.90;;;;;;5095062;28;20407;-75
2021/03/15 09:17:19;;;;;;;15.98;2.50;;;6.70;99.90;;;;;;5070983;28;20052;-74
2021/03/15 09:19:47;;;;;;;9.65;1.80;;;6.70;99.90;;;;;;5099759;28;20049;-74
2021/03/15 09:22:15;;;;;;;13.70;2.00;;;6.80;99.90;;;;;;5087529;28;20044;-75
2021/03/15 09:24:44;;;;;;;10.93;2.33;;;6.80;99.90;;;;;;5098811;28;20044;-74
2021/03/15 09:27:39;;;;;;;17.10;2.45;;;7.00;99.90;;;;;;5088185;28;20052;-73
2021/03/15 09:30:05;;;;;;;12.65;2.38;;;7.00;99.90;;;;;;5099155;28;20405;-74
2021/03/15 09:32:35;;;;;;;16.60;2.50;;;7.10;99.90;;;;;;5087986;28;20087;-73
2021/03/15 09:35:22;;;;;;;16.13;2.63;;;7.10;99.90;;;;;;5099171;28;20044;-74
2021/03/15 09:38:07;;;;;;;17.05;3.08;;;7.20;99.90;;;;;;5066634;28;20048;-74
2021/03/15 09:40:36;;;;;;;11.80;2.78;;;7.30;99.90;;;;;;5082460;28;20142;-72
2021/03/15 09:43:02;;;;;;;17.98;2.88;;;7.40;99.90;;;;;;5099334;28;20040;-74
2021/03/15 09:45:32;;;;;;;12.57;2.03;;;7.40;99.90;;;;;;5099102;28;20055;-74
2021/03/15 09:47:59;;;;;;;15.48;2.38;;;7.40;99.90;;;;;;5070664;28;20059;-75
2021/03/15 09:50:32;;;;;;;13.00;2.53;;;7.30;99.90;;;;;;5099352;28;20508;-74
2021/03/15 09:53:10;;;;;;;14.18;2.88;;;7.30;99.10;;;;;;5070619;28;20432;-74
2021/03/15 09:55:36;;;;;;;21.10;2.92;;;7.30;99.10;;;;;;5090847;28;20089;-73
2021/03/15 09:58:07;;;;;;;14.82;3.05;;;7.30;98.90;;;;;;5097355;28;20054;-74
2021/03/15 10:00:34;;;;;;;17.38;3.47;;;7.30;98.70;;;;;;5096837;28;20032;-74
2021/03/15 10:03:01;;;;;;;14.02;2.60;;;7.40;98.50;;;;;;5064094;28;20083;-75
2021/03/15 10:05:27;;;;;;;13.23;2.50;;;7.30;99.30;;;;;;5098663;28;20059;-74
2021/03/15 10:07:53;;;;;;;14.27;3.17;;;7.30;99.20;;;;;;5089004;28;20051;-75
2021/03/15 10:10:21;;;;;;;16.13;2.63;;;7.50;98.20;;;;;;5101167;28;20161;-75
2021/03/15 10:12:49;;;;;;;17.20;3.13;;;7.40;98.40;;;;;;5086955;28;20406;-74
2021/03/15 10:15:19;;;;;;;12.88;2.03;;;7.30;98.90;;;;;;5096770;28;20039;-74
2021/03/15 10:17:47;;;;;;;14.60;2.60;;;7.30;99.30;;;;;;5086799;28;20052;-74
2021/03/15 10:20:30;;;;;;;13.55;2.45;;;7.20;99.60;;;;;;5100208;28;20458;-73
2021/03/15 10:22:56;;;;;;;18.38;2.70;;;7.30;99.90;;;;;;5084873;28;20097;-73
2021/03/15 10:25:23;;;;;;;18.02;2.58;;;7.20;99.90;;;;;;5076982;28;20052;-73
2021/03/15 10:27:57;;;;;;;16.15;3.47;;;7.30;99.90;;;;;;5084232;28;20062;-73
2021/03/15 10:30:32;;;;;;;20.05;2.90;;;7.70;99.90;;;;;;5079174;28;20044;-74
2021/03/15 10:32:59;;;;;;;24.55;3.70;;;7.80;98.80;;;;;;5083411;28;20261;-74
2021/03/15 10:35:28;;;;;;;21.40;3.13;;;7.90;98.00;;;;;;5076804;28;20048;-74
2021/03/15 10:37:57;;;;;;;22.20;4.60;;;7.90;97.90;;;;;;5080009;28;20104;-74
2021/03/15 10:40:24;;;;;;;20.52;3.20;;;7.90;97.80;;;;;;5068345;28;20051;-74
2021/03/15 10:42:51;;;;;;;12.25;2.90;;;8.00;98.60;;;;;;5083696;28;20048;-74
2021/03/15 10:45:17;;;;;;;13.18;2.70;;;8.30;98.00;;;;;;5077362;28;20139;-73
2021/03/15 10:47:43;;;;;;;13.63;3.17;;;8.30;96.50;;;;;;5066507;28;20067;-74
2021/03/15 10:50:29;;;;;;;14.15;4.45;;;8.60;96.10;;;;;;5060512;28;20048;-73
2021/03/15 10:52:55;;;;;;;17.13;3.10;;;8.30;95.10;;;;;;5051281;28;20049;-75
2021/03/15 10:55:32;;;;;;;15.68;2.83;;;8.00;95.90;;;;;;5057817;28;20108;-75
2021/03/15 10:58:03;;;;;;;12.50;2.60;;;8.10;95.60;;;;;;5081951;28;20144;-76
2021/03/15 11:00:33;;;;;;;14.10;2.60;;;8.00;95.00;;;;;;5077687;28;20086;-76
2021/03/15 11:02:59;;;;;;;12.27;2.25;;;8.30;94.90;;;;;;5085372;28;20052;-76
2021/03/15 11:05:25;;;;;;;14.77;2.47;;;8.20;92.50;;;;;;5079253;28;20099;-81
2021/03/15 11:07:52;;;;;;;10.43;2.55;;;8.10;93.20;;;;;;5056174;28;20044;-81
2021/03/15 11:10:26;;;;;;;14.77;2.60;;;8.30;93.90;;;;;;5058156;28;20428;-82
2021/03/15 11:12:59;;;;;;;14.80;2.35;;;8.30;92.60;;;;;;5063564;28;20048;-81
2021/03/15 11:15:32;;;;;;;16.10;2.63;;;8.30;92.50;;;;;;5058370;28;20047;-80
2021/03/15 11:18:13;;;;;;;11.95;2.88;;;8.50;94.60;;;;;;5067649;28;20048;-80
2021/03/15 11:20:38;;;;;;;;;;;8.50;92.10;;;;;;5072389;28;20037;-81
2021/03/15 11:23:05;;;;;;;15.32;2.80;;;8.60;92.50;;;;;;5082384;28;19920;-81
2021/03/15 11:25:31;;;;;;;12.68;3.00;;;8.60;92.40;;;;;;5078935;28;20039;-83
2021/03/15 11:28:05;;;;;;;10.65;2.30;;;8.60;92.40;;;;;;5069606;28;20044;-82
2021/03/15 11:30:32;;;;;;;15.65;2.97;;;8.40;93.20;;;;;;5074638;28;20051;-81
2021/03/15 11:33:08;;;;;;;15.70;2.40;;;8.30;93.10;;;;;;5081533;28;20102;-82
2021/03/15 11:35:36;;;;;;;13.15;2.88;;;8.20;93.30;;;;;;5076884;28;20044;-79
2021/03/15 11:38:03;;;;;;;21.33;3.53;;;8.20;93.00;;;;;;5081564;28;20609;-79
2021/03/15 11:40:35;;;;;;;19.63;3.03;;;8.30;93.50;;;;;;5078139;28;20067;-77
2021/03/15 11:43:02;;;;;;;17.48;3.38;;;8.40;92.70;;;;;;5054787;28;20060;-79
2021/03/15 11:45:29;;;;;;;22.00;3.65;;;8.40;92.70;;;;;;5056415;28;20036;-78
2021/03/15 11:47:55;;;;;;;19.67;3.78;;;8.60;92.70;;;;;;5062845;28;20146;-77
2021/03/15 11:50:23;;;;;;;19.73;2.90;;;8.50;92.30;;;;;;5071604;28;20124;-78
2021/03/15 11:52:51;;;;;;;20.30;2.50;;;8.50;93.10;;;;;;5073496;28;20464;-79
2021/03/15 11:55:18;;;;;;;10.52;2.38;;;8.40;92.30;;;;;;5080237;28;20044;-79
2021/03/15 11:57:44;;;;;;;9.13;2.60;;;8.40;93.30;;;;;;5067630;28;20064;-78
2021/03/15 12:00:12;;;;;;;13.38;2.35;;;8.80;92.60;;;;;;5078726;28;20049;-72
2021/03/15 12:02:39;;;;;;;20.60;2.83;;;8.70;92.30;;;;;;5077972;28;20048;-72
2021/03/15 12:05:10;;;;;;;19.27;3.25;;;8.70;91.90;;;;;;5080259;28;20051;-72
2021/03/15 12:07:37;;;;;;;19.23;2.65;;;8.70;92.20;;;;;;5077092;28;20040;-72
2021/03/15 12:10:06;;;;;;;14.60;3.15;;;8.70;92.70;;;;;;5081148;28;20044;-71
2021/03/15 12:12:32;;;;;;;21.00;3.08;;;8.60;92.40;;;;;;5064870;28;20051;-72
2021/03/15 12:14:59;;;;;;;20.85;4.07;;;8.60;92.50;;;;;;5063281;28;20072;-72
2021/03/15 12:17:24;;;;;;;15.80;3.40;;;8.70;93.70;;;;;;5055701;28;20048;-72
2021/03/15 12:19:50;;;;;;;15.35;2.63;;;8.80;92.40;;;;;;5054576;28;20045;-71
2021/03/15 12:22:16;;;;;;;12.00;2.35;;;9.00;92.40;;;;;;5056081;28;20048;-71
2021/03/15 12:24:42;;;;;;;12.27;2.53;;;9.10;91.50;;;;;;5064356;28;20045;-72
2021/03/15 12:27:08;;;;;;;11.90;2.53;;;9.50;90.00;;;;;;5058907;28;20044;-72
2021/03/15 12:29:34;;;;;;;12.68;2.90;;;9.30;90.90;;;;;;5074161;28;20527;-72
2021/03/15 12:32:00;;;;;;;15.45;2.78;;;9.30;90.70;;;;;;5065712;28;20044;-72
2021/03/15 12:34:26;;;;;;;15.98;2.45;;;9.20;90.00;;;;;;5067272;28;20049;-71
2021/03/15 12:36:52;;;;;;;17.38;2.90;;;9.10;90.00;;;;;;5058098;28;20051;-71
2021/03/15 12:39:18;;;;;;;15.15;2.53;;;9.20;90.50;;;;;;5079689;28;20059;-72
2021/03/15 12:41:44;;;;;;;22.35;3.45;;;9.10;91.40;;;;;;5069152;28;20490;-71
2021/03/15 12:44:10;;;;;;;11.77;2.65;;;8.90;90.90;;;;;;5088000;28;20231;-72
2021/03/15 12:46:36;;;;;;;17.52;3.78;;;8.90;89.60;;;;;;5068358;28;20216;-71
2021/03/15 12:49:01;;;;;;;18.40;4.10;;;8.80;90.10;;;;;;5089069;28;20112;-72
2021/03/15 12:51:27;;;;;;;14.25;3.20;;;8.90;90.60;;;;;;5067302;28;20075;-70
2021/03/15 12:53:53;;;;;;;14.57;3.13;;;9.00;90.80;;;;;;5049396;28;20104;-71
2021/03/15 12:56:19;;;;;;;11.05;2.40;;;8.80;90.70;;;;;;5054811;28;20360;-70
2021/03/15 12:58:46;;;;;;;17.45;2.95;;;8.80;90.40;;;;;;5072098;28;20049;-72
2021/03/15 13:01:12;;;;;;;14.70;3.65;;;8.80;90.70;;;;;;5062246;28;20048;-71
2021/03/15 13:03:39;;;;;;;13.52;2.72;;;8.90;90.70;;;;;;5067455;28;20083;-71
2021/03/15 13:06:05;;;;;;;11.93;2.95;;;9.00;90.50;;;;;;5062233;28;20596;-71